Time;durP1;ratioP1;P1;durP2;ratioP2;P2;SDS_P1;SDS_P2;PMS_P1;PMS_P2;Temp;Humidity;BMP_temperature;BMP_pressure;BME280_temperature;BME280_humidity;BME280_pressure;Samples;Min_cycle;Max_cycle;Signal;HPM_P1;HPM_P2
2021/08/09 00:02:20;;;;;;;2.05;1.13;;;13.30;74.40;;;;;;5154720;27;20382;-73
2021/08/09 00:04:45;;;;;;;5.25;1.30;;;13.30;74.30;;;;;;5136140;27;20023;-73
2021/08/09 00:07:12;;;;;;;4.55;1.00;;;13.30;74.30;;;;;;5154754;27;20037;-72
2021/08/09 00:09:37;;;;;;;1.95;1.00;;;13.20;74.50;;;;;;5154671;27;20019;-73
2021/08/09 00:12:03;;;;;;;2.83;1.10;;;13.20;74.90;;;;;;5154646;27;20030;-73
2021/08/09 00:14:29;;;;;;;5.40;1.00;;;13.20;75.20;;;;;;5154561;27;20486;-73
2021/08/09 00:16:55;;;;;;;3.92;1.67;;;13.20;75.10;;;;;;5154496;27;20445;-73
2021/08/09 00:19:20;;;;;;;9.55;1.02;;;13.10;74.90;;;;;;5154636;27;20051;-73
2021/08/09 00:21:46;;;;;;;4.22;1.10;;;13.10;75.30;;;;;;5135996;27;20458;-73
2021/08/09 00:24:11;;;;;;;1.52;0.90;;;13.10;75.20;;;;;;5154562;27;20127;-73
2021/08/09 00:26:38;;;;;;;2.60;0.95;;;13.20;75.10;;;;;;5154515;27;20023;-73
2021/08/09 00:29:03;;;;;;;4.57;1.35;;;13.10;75.20;;;;;;5154496;27;20033;-73
2021/08/09 00:31:29;;;;;;;4.55;1.73;;;13.10;75.10;;;;;;5154461;27;20019;-73
2021/08/09 00:33:54;;;;;;;5.45;1.30;;;13.00;75.20;;;;;;5154587;27;20042;-73
2021/08/09 00:36:20;;;;;;;6.18;1.50;;;13.00;75.40;;;;;;5154408;27;20019;-73
2021/08/09 00:38:46;;;;;;;6.13;1.42;;;12.90;75.50;;;;;;5135864;27;20038;-73
2021/08/09 00:41:12;;;;;;;3.55;1.08;;;12.90;75.50;;;;;;5154377;27;20156;-73
2021/08/09 00:43:38;;;;;;;4.80;1.30;;;12.90;75.70;;;;;;5154418;27;20058;-73
2021/08/09 00:46:04;;;;;;;5.68;1.42;;;12.80;75.90;;;;;;5154332;27;20019;-73
2021/08/09 00:48:33;;;;;;;4.82;1.23;;;12.80;76.30;;;;;;5154325;27;20046;-73
2021/08/09 00:51:00;;;;;;;2.85;1.13;;;12.70;76.60;;;;;;5153889;27;20081;-73
2021/08/09 00:53:25;;;;;;;1.83;1.27;;;12.70;76.70;;;;;;5154254;27;20027;-73
2021/08/09 00:55:52;;;;;;;1.73;1.13;;;12.70;76.70;;;;;;5154259;27;20034;-74
2021/08/09 00:58:18;;;;;;;5.57;1.50;;;12.70;76.90;;;;;;5158097;27;20031;-73
2021/08/09 01:00:44;;;;;;;2.75;1.60;;;12.70;76.80;;;;;;5158577;27;20382;-73
2021/08/09 01:03:09;;;;;;;3.45;1.10;;;12.80;76.60;;;;;;5158076;27;20027;-73
2021/08/09 01:05:35;;;;;;;4.75;1.25;;;12.80;76.40;;;;;;5158081;27;20049;-73
2021/08/09 01:08:19;;;;;;;4.97;1.48;;;12.70;76.60;;;;;;5139484;27;20022;-73
2021/08/09 01:11:18;;;;;;;3.13;1.10;;;12.70;76.60;;;;;;5157990;27;20471;-72
2021/08/09 01:13:57;;;;;;;2.00;0.98;;;12.70;76.80;;;;;;5157894;27;20075;-73
2021/08/09 01:16:30;;;;;;;2.40;1.23;;;12.70;76.50;;;;;;5157799;27;20022;-73
2021/08/09 01:19:01;;;;;;;2.20;1.02;;;12.80;76.60;;;;;;5157833;27;20494;-73
2021/08/09 01:21:32;;;;;;;4.47;1.20;;;12.90;77.40;;;;;;5157780;27;20050;-73
2021/08/09 01:24:26;;;;;;;4.15;1.10;;;12.90;76.30;;;;;;5157753;27;20019;-73
2021/08/09 01:26:57;;;;;;;5.57;1.30;;;12.80;76.30;;;;;;5157633;27;20586;-73
2021/08/09 01:29:31;;;;;;;4.60;1.42;;;12.80;76.30;;;;;;5138923;27;20079;-73
2021/08/09 01:31:58;;;;;;;5.03;1.50;;;12.70;76.40;;;;;;5157642;27;20098;-73
2021/08/09 01:34:25;;;;;;;3.53;1.30;;;12.60;76.70;;;;;;5157511;27;20054;-72
2021/08/09 01:36:54;;;;;;;3.67;1.58;;;12.50;77.30;;;;;;5157387;27;20071;-73
2021/08/09 01:39:20;;;;;;;3.25;1.35;;;12.50;77.50;;;;;;5157325;27;20073;-73
2021/08/09 01:41:48;;;;;;;1.90;1.17;;;12.50;77.60;;;;;;5157451;27;20031;-73
2021/08/09 01:44:15;;;;;;;2.35;1.25;;;12.50;77.80;;;;;;5157319;27;20027;-73
2021/08/09 01:46:41;;;;;;;1.50;0.98;;;12.50;77.80;;;;;;5157328;27;20484;-73
2021/08/09 01:49:08;;;;;;;3.25;1.25;;;12.50;77.70;;;;;;5157015;27;20058;-73
2021/08/09 01:51:34;;;;;;;5.25;1.35;;;12.50;77.80;;;;;;5157096;27;20127;-73
2021/08/09 01:54:02;;;;;;;5.13;1.27;;;12.40;78.00;;;;;;5157294;27;20023;-73
2021/08/09 01:56:28;;;;;;;3.58;1.38;;;12.30;79.10;;;;;;5156918;27;20498;-73
2021/08/09 01:58:54;;;;;;;5.18;1.52;;;12.30;78.60;;;;;;5157138;27;20026;-73
2021/08/09 02:01:21;;;;;;;2.45;1.00;;;12.20;78.70;;;;;;5156883;27;20021;-73
2021/08/09 02:03:47;;;;;;;3.25;1.50;;;12.30;78.80;;;;;;5156899;27;20113;-73
2021/08/09 02:06:13;;;;;;;4.78;1.70;;;12.30;78.70;;;;;;5156809;27;20483;-73
2021/08/09 02:08:39;;;;;;;3.60;1.23;;;12.20;78.60;;;;;;5156214;27;20034;-73
2021/08/09 02:11:24;;;;;;;2.40;1.10;;;12.20;78.80;;;;;;5156765;27;20019;-73
2021/08/09 02:13:55;;;;;;;4.45;1.85;;;12.10;79.10;;;;;;5138125;27;20027;-73
2021/08/09 02:16:34;;;;;;;2.20;1.38;;;12.20;79.10;;;;;;5156522;27;20026;-73
2021/08/09 02:19:15;;;;;;;4.63;1.67;;;12.20;78.70;;;;;;5156678;27;20023;-73
2021/08/09 02:22:16;;;;;;;4.47;1.20;;;12.20;78.60;;;;;;5156610;27;20397;-73
2021/08/09 02:24:54;;;;;;;5.50;0.93;;;12.30;78.50;;;;;;5117436;27;20079;-73
2021/08/09 02:27:21;;;;;;;3.63;1.13;;;12.30;78.30;;;;;;5156417;27;20018;-73
2021/08/09 02:29:50;;;;;;;5.80;1.55;;;12.30;78.10;;;;;;5156418;27;20029;-73
2021/08/09 02:32:18;;;;;;;7.22;1.38;;;12.30;78.00;;;;;;5156281;27;20027;-73
2021/08/09 02:34:45;;;;;;;4.80;1.48;;;12.40;77.80;;;;;;5156377;27;20102;-73
2021/08/09 02:37:11;;;;;;;5.70;1.45;;;12.30;78.00;;;;;;5156089;27;20028;-73
2021/08/09 02:39:39;;;;;;;4.82;1.17;;;12.20;78.30;;;;;;5156286;27;20023;-72
2021/08/09 02:42:05;;;;;;;4.65;1.50;;;12.20;78.50;;;;;;5156100;27;20030;-72
2021/08/09 02:44:32;;;;;;;2.75;1.30;;;12.10;79.00;;;;;;5156159;27;20022;-73
2021/08/09 02:47:00;;;;;;;3.17;1.38;;;12.00;79.10;;;;;;5156042;27;20046;-72
2021/08/09 02:49:26;;;;;;;1.73;1.00;;;12.10;79.40;;;;;;5156035;27;20067;-73
2021/08/09 02:51:52;;;;;;;3.00;1.30;;;12.10;79.20;;;;;;5155844;27;20043;-73
2021/08/09 02:54:19;;;;;;;4.43;1.38;;;12.20;79.00;;;;;;5155982;27;20454;-73
2021/08/09 02:56:46;;;;;;;2.67;1.13;;;12.10;78.90;;;;;;5155914;27;20030;-73
2021/08/09 02:59:12;;;;;;;2.92;1.20;;;12.00;79.10;;;;;;5155831;27;20494;-73
2021/08/09 03:01:40;;;;;;;4.35;1.50;;;12.10;79.30;;;;;;5155809;27;20050;-72
2021/08/09 03:04:07;;;;;;;7.28;1.65;;;12.10;79.20;;;;;;5155715;27;20026;-73
2021/08/09 03:06:33;;;;;;;3.40;1.63;;;12.10;79.20;;;;;;5155686;27;20463;-73
2021/08/09 03:09:00;;;;;;;1.88;1.15;;;12.10;79.30;;;;;;5155733;27;20030;-73
2021/08/09 03:11:26;;;;;;;5.70;1.65;;;12.10;79.50;;;;;;5155508;27;20019;-73
2021/08/09 03:13:52;;;;;;;2.20;1.48;;;12.00;79.70;;;;;;5137011;27;20113;-73
2021/08/09 03:16:18;;;;;;;2.95;1.40;;;12.00;80.00;;;;;;5155362;27;20463;-73
2021/08/09 03:18:43;;;;;;;3.53;1.25;;;12.00;80.10;;;;;;5155461;27;20031;-73
2021/08/09 03:21:09;;;;;;;3.17;1.25;;;12.00;80.30;;;;;;5154479;27;20034;-73
2021/08/09 03:23:36;;;;;;;2.10;1.20;;;11.90;80.60;;;;;;5155364;27;20467;-73
2021/08/09 03:26:01;;;;;;;6.38;1.23;;;11.90;80.60;;;;;;5155277;27;20023;-73
2021/08/09 03:28:27;;;;;;;4.32;1.35;;;11.90;80.70;;;;;;5155247;27;20019;-73
2021/08/09 03:30:52;;;;;;;2.08;0.98;;;11.90;80.70;;;;;;5136751;27;20113;-73
2021/08/09 03:33:18;;;;;;;4.80;1.35;;;11.90;80.60;;;;;;5155092;27;20513;-73
2021/08/09 03:35:44;;;;;;;3.20;1.45;;;11.90;80.50;;;;;;5155099;27;20022;-73
2021/08/09 03:38:10;;;;;;;2.60;1.40;;;11.90;80.30;;;;;;5154965;27;20042;-72
2021/08/09 03:40:35;;;;;;;3.08;1.25;;;11.90;80.20;;;;;;5154920;27;20463;-73
2021/08/09 03:43:03;;;;;;;4.20;1.38;;;11.90;80.30;;;;;;5136442;27;20019;-73
2021/08/09 03:45:29;;;;;;;3.90;1.38;;;11.80;80.40;;;;;;5154746;27;20031;-73
2021/08/09 03:47:54;;;;;;;2.58;1.00;;;11.80;81.30;;;;;;5154875;27;20023;-73
2021/08/09 03:50:20;;;;;;;3.88;1.33;;;11.80;80.60;;;;;;5154881;27;20356;-73
2021/08/09 03:52:51;;;;;;;2.83;1.33;;;11.80;80.90;;;;;;5154711;27;20069;-72
2021/08/09 03:55:17;;;;;;;3.10;1.27;;;11.80;81.10;;;;;;5154762;27;20029;-73
2021/08/09 03:57:43;;;;;;;6.75;1.65;;;11.80;81.90;;;;;;5154712;27;20038;-72
2021/08/09 04:00:09;;;;;;;5.10;1.50;;;11.80;81.00;;;;;;5154739;27;20018;-73
2021/08/09 04:02:35;;;;;;;2.95;1.65;;;11.80;80.80;;;;;;5154097;27;20022;-73
2021/08/09 04:05:01;;;;;;;4.20;1.60;;;11.80;81.00;;;;;;5154644;27;20014;-73
2021/08/09 04:07:27;;;;;;;2.55;1.17;;;11.80;81.10;;;;;;5154677;27;20143;-73
2021/08/09 04:09:54;;;;;;;3.40;1.65;;;11.80;81.20;;;;;;5154707;27;20015;-73
2021/08/09 04:12:21;;;;;;;5.82;1.67;;;11.80;81.40;;;;;;5154457;27;20123;-73
2021/08/09 04:14:47;;;;;;;2.40;1.30;;;11.70;81.40;;;;;;5154674;27;20026;-73
2021/08/09 04:17:12;;;;;;;3.72;1.60;;;11.70;81.70;;;;;;5154435;27;20030;-73
2021/08/09 04:19:38;;;;;;;5.32;1.27;;;11.70;81.80;;;;;;5154570;27;20018;-73
2021/08/09 04:22:03;;;;;;;6.72;1.52;;;11.60;81.80;;;;;;5154590;27;20047;-73
2021/08/09 04:24:29;;;;;;;2.90;1.35;;;11.60;81.90;;;;;;5154492;27;20023;-72
2021/08/09 04:26:55;;;;;;;2.92;1.25;;;11.60;81.90;;;;;;5154504;27;20050;-72
2021/08/09 04:29:20;;;;;;;4.97;1.30;;;11.60;81.60;;;;;;5155221;27;20041;-73
2021/08/09 04:31:46;;;;;;;8.07;1.60;;;11.60;81.60;;;;;;5159005;27;20109;-73
2021/08/09 04:34:11;;;;;;;4.82;1.50;;;11.60;81.60;;;;;;5160117;27;20035;-73
2021/08/09 04:36:37;;;;;;;6.22;1.63;;;11.60;81.70;;;;;;5158558;27;20106;-73
2021/08/09 04:39:03;;;;;;;2.78;1.30;;;11.60;81.90;;;;;;5158504;27;20038;-73
2021/08/09 04:41:28;;;;;;;1.90;1.15;;;11.70;81.80;;;;;;5158635;27;20027;-73
2021/08/09 04:43:54;;;;;;;2.88;1.23;;;11.70;81.70;;;;;;5158577;27;20375;-73
2021/08/09 04:46:19;;;;;;;5.20;1.63;;;11.70;81.80;;;;;;5158480;27;20475;-72
2021/08/09 04:48:45;;;;;;;3.55;1.38;;;11.70;81.80;;;;;;5158448;27;20031;-73
2021/08/09 04:51:11;;;;;;;3.25;1.55;;;11.70;81.90;;;;;;5158158;27;20070;-72
2021/08/09 04:53:37;;;;;;;2.17;1.63;;;11.60;81.90;;;;;;5158447;27;20031;-72
2021/08/09 04:56:02;;;;;;;4.38;1.50;;;11.60;82.00;;;;;;5158248;27;20098;-74
2021/08/09 04:58:28;;;;;;;3.83;1.67;;;11.70;82.10;;;;;;5158273;27;20054;-73
2021/08/09 05:00:53;;;;;;;2.33;1.63;;;11.70;82.00;;;;;;5158343;27;20047;-74
2021/08/09 05:03:19;;;;;;;6.57;1.38;;;11.70;82.00;;;;;;5157726;27;20072;-75
2021/08/09 05:05:46;;;;;;;6.18;1.70;;;11.70;82.50;;;;;;5158163;27;20015;-75
2021/08/09 05:08:12;;;;;;;3.30;1.60;;;11.70;81.50;;;;;;5158175;27;20026;-74
2021/08/09 05:10:37;;;;;;;6.30;1.80;;;11.80;81.50;;;;;;5158103;27;20033;-71
2021/08/09 05:13:03;;;;;;;4.35;1.77;;;11.80;81.50;;;;;;5139286;27;20576;-74
2021/08/09 05:15:31;;;;;;;4.63;1.50;;;11.80;81.10;;;;;;5157829;27;20034;-74
2021/08/09 05:17:56;;;;;;;3.50;1.70;;;11.90;81.10;;;;;;5157947;27;20023;-74
2021/08/09 05:20:22;;;;;;;5.95;1.65;;;11.90;81.00;;;;;;5157787;27;20015;-72
2021/08/09 05:22:48;;;;;;;5.13;1.42;;;12.00;81.00;;;;;;5157862;27;20031;-75
2021/08/09 05:25:14;;;;;;;5.93;1.80;;;12.00;80.80;;;;;;5157837;27;20462;-72
2021/08/09 05:27:41;;;;;;;3.60;1.67;;;12.20;80.40;;;;;;5157991;27;20031;-72
2021/08/09 05:30:08;;;;;;;3.97;1.63;;;12.30;80.10;;;;;;5157709;27;20019;-73
2021/08/09 05:32:35;;;;;;;3.95;1.15;;;12.50;79.70;;;;;;5158685;27;20471;-72
2021/08/09 05:35:02;;;;;;;2.15;1.15;;;12.70;79.10;;;;;;5158658;27;20050;-72
2021/08/09 05:37:29;;;;;;;4.32;1.15;;;12.80;78.30;;;;;;5158183;27;20058;-72
2021/08/09 05:39:58;;;;;;;6.47;1.38;;;13.00;77.70;;;;;;5157480;27;20420;-71
2021/08/09 05:42:23;;;;;;;3.92;1.13;;;13.10;77.10;;;;;;5162187;27;20042;-72
2021/08/09 05:44:49;;;;;;;5.63;1.10;;;13.10;76.90;;;;;;5157916;27;20478;-73
2021/08/09 05:47:14;;;;;;;4.97;1.55;;;13.20;76.30;;;;;;5162834;27;20031;-72
2021/08/09 05:49:40;;;;;;;4.25;1.42;;;13.30;76.10;;;;;;5158618;27;20019;-73
2021/08/09 05:52:05;;;;;;;4.05;1.40;;;13.40;75.80;;;;;;5159280;27;20042;-72
2021/08/09 05:54:31;;;;;;;6.32;1.70;;;13.50;75.40;;;;;;5141599;27;20371;-71
2021/08/09 05:56:57;;;;;;;3.92;1.17;;;13.60;75.00;;;;;;5160835;27;20026;-72
2021/08/09 05:59:22;;;;;;;2.05;1.50;;;13.70;74.60;;;;;;5159693;27;20030;-71
2021/08/09 06:01:48;;;;;;;4.32;1.45;;;13.80;74.20;;;;;;5159390;27;20533;-71
2021/08/09 06:04:13;;;;;;;4.82;1.60;;;13.90;73.80;;;;;;5159823;27;20023;-72
2021/08/09 06:06:40;;;;;;;1.50;0.82;;;13.90;73.90;;;;;;5159402;27;20368;-73
2021/08/09 06:09:06;;;;;;;4.63;1.17;;;14.00;73.80;;;;;;5159490;27;20061;-72
2021/08/09 06:11:32;;;;;;;4.82;1.27;;;14.00;74.00;;;;;;5140407;27;20479;-73
2021/08/09 06:13:57;;;;;;;4.35;1.50;;;14.00;74.10;;;;;;5158553;27;20042;-73
2021/08/09 06:16:25;;;;;;;3.72;1.00;;;14.20;73.80;;;;;;5158243;27;20023;-73
2021/08/09 06:18:51;;;;;;;6.18;1.50;;;14.30;73.50;;;;;;5157470;27;20082;-73
2021/08/09 06:21:16;;;;;;;2.00;1.10;;;14.50;73.20;;;;;;5157610;27;20027;-73
2021/08/09 06:23:42;;;;;;;4.65;1.52;;;14.60;72.80;;;;;;5138371;27;20434;-72
2021/08/09 06:26:08;;;;;;;3.08;1.17;;;14.70;72.40;;;;;;5157333;27;20023;-72
2021/08/09 06:28:35;;;;;;;2.05;1.25;;;14.90;72.10;;;;;;5157154;27;20041;-72
2021/08/09 06:31:00;;;;;;;7.32;1.35;;;15.10;71.80;;;;;;5157403;27;20015;-72
2021/08/09 06:33:26;;;;;;;3.97;1.48;;;15.20;71.00;;;;;;5157366;27;20023;-73
2021/08/09 06:35:51;;;;;;;4.90;1.15;;;15.30;71.20;;;;;;5156304;27;20423;-73
2021/08/09 06:38:17;;;;;;;2.75;1.08;;;15.40;70.40;;;;;;5155938;27;20038;-74
2021/08/09 06:40:44;;;;;;;2.75;1.10;;;15.60;70.30;;;;;;5156108;27;20015;-74
2021/08/09 06:43:11;;;;;;;2.20;1.20;;;15.60;69.90;;;;;;5157005;27;20497;-74
2021/08/09 06:45:44;;;;;;;3.17;1.00;;;15.80;69.40;;;;;;5156998;27;20050;-74
2021/08/09 06:48:11;;;;;;;2.58;1.08;;;16.00;69.40;;;;;;5157027;27;20023;-73
2021/08/09 06:50:38;;;;;;;3.90;1.02;;;16.10;69.20;;;;;;5156662;27;20011;-73
2021/08/09 06:53:03;;;;;;;2.20;1.05;;;16.30;69.00;;;;;;5156824;27;20125;-73
2021/08/09 06:55:29;;;;;;;2.83;1.17;;;16.50;68.90;;;;;;5156384;27;20057;-74
2021/08/09 06:57:55;;;;;;;4.47;1.80;;;16.60;68.90;;;;;;5156239;27;20038;-73
2021/08/09 07:00:21;;;;;;;2.20;1.70;;;16.80;68.00;;;;;;5156592;27;20019;-74
2021/08/09 07:02:47;;;;;;;3.78;1.70;;;16.90;67.60;;;;;;5156002;27;20050;-73
2021/08/09 07:05:13;;;;;;;3.30;1.50;;;17.10;67.40;;;;;;5156000;27;20388;-74
2021/08/09 07:07:40;;;;;;;4.95;1.48;;;17.20;67.00;;;;;;5155847;27;20376;-73
2021/08/09 07:10:06;;;;;;;2.05;1.20;;;17.40;66.60;;;;;;5155820;27;20072;-73
2021/08/09 07:12:32;;;;;;;5.53;0.98;;;17.60;65.30;;;;;;5155758;27;20030;-73
2021/08/09 07:14:57;;;;;;;3.63;1.55;;;17.80;64.40;;;;;;5155988;27;20022;-73
2021/08/09 07:17:23;;;;;;;4.15;1.30;;;17.90;63.00;;;;;;5155985;27;20479;-72
2021/08/09 07:19:48;;;;;;;3.92;1.40;;;18.00;62.00;;;;;;5155860;27;20031;-73
2021/08/09 07:22:14;;;;;;;2.25;1.05;;;18.10;61.00;;;;;;5155572;27;20106;-73
2021/08/09 07:24:39;;;;;;;3.70;0.90;;;18.20;57.90;;;;;;5155418;27;20019;-73
2021/08/09 07:27:05;;;;;;;1.92;0.98;;;18.30;58.20;;;;;;5155289;27;20074;-74
2021/08/09 07:29:31;;;;;;;2.60;0.75;;;18.30;58.80;;;;;;5136625;27;20485;-73
2021/08/09 07:31:57;;;;;;;2.28;0.70;;;18.50;59.90;;;;;;5155079;27;20049;-74
2021/08/09 07:34:23;;;;;;;1.98;1.05;;;18.70;59.20;;;;;;5155047;27;20019;-73
2021/08/09 07:36:48;;;;;;;2.65;1.10;;;18.80;59.00;;;;;;5154839;27;20092;-72
2021/08/09 07:39:14;;;;;;;3.30;0.70;;;19.00;58.00;;;;;;5155051;27;20019;-79
2021/08/09 07:41:40;;;;;;;4.20;0.98;;;19.10;58.50;;;;;;5154909;27;20110;-76
2021/08/09 07:44:06;;;;;;;4.05;1.10;;;19.40;58.70;;;;;;5136258;27;20035;-78
2021/08/09 07:46:31;;;;;;;4.57;0.85;;;19.60;58.60;;;;;;5154977;27;20019;-79
2021/08/09 07:48:57;;;;;;;2.33;0.82;;;19.80;57.80;;;;;;5154654;27;20027;-79
2021/08/09 07:51:22;;;;;;;4.88;1.10;;;19.90;56.60;;;;;;5154700;27;20043;-79
2021/08/09 07:53:48;;;;;;;3.00;1.08;;;19.90;54.30;;;;;;5154888;27;20027;-78
2021/08/09 07:56:13;;;;;;;3.05;0.90;;;20.00;52.50;;;;;;5154616;27;20030;-78
2021/08/09 07:58:39;;;;;;;2.92;0.90;;;20.00;50.30;;;;;;5135705;27;20030;-78
2021/08/09 08:01:04;;;;;;;2.13;1.17;;;19.80;51.70;;;;;;5154542;27;20018;-78
2021/08/09 08:03:30;;;;;;;2.92;0.82;;;19.80;52.50;;;;;;5154343;27;20018;-78
2021/08/09 08:05:55;;;;;;;2.10;0.90;;;19.70;50.30;;;;;;5153860;27;20170;-78
2021/08/09 08:08:21;;;;;;;1.88;0.80;;;19.70;52.90;;;;;;5135828;27;20047;-78
2021/08/09 08:10:47;;;;;;;2.47;1.33;;;19.70;49.80;;;;;;5154337;27;20324;-78
2021/08/09 08:13:12;;;;;;;2.92;0.80;;;19.80;50.50;;;;;;5154232;27;20027;-78
2021/08/09 08:15:38;;;;;;;1.70;0.68;;;19.80;51.30;;;;;;5135853;27;20022;-78
2021/08/09 08:18:04;;;;;;;3.03;1.10;;;19.70;47.70;;;;;;5154340;27;20027;-78
2021/08/09 08:20:29;;;;;;;3.63;1.13;;;19.60;51.10;;;;;;5154271;27;20592;-78
2021/08/09 08:22:57;;;;;;;2.47;1.08;;;19.80;50.60;;;;;;5154423;27;20023;-78
2021/08/09 08:25:22;;;;;;;2.13;0.90;;;19.80;51.30;;;;;;5154269;27;20015;-78
2021/08/09 08:27:48;;;;;;;3.03;0.90;;;19.90;49.20;;;;;;5135826;27;20030;-78
2021/08/09 08:30:15;;;;;;;6.72;1.20;;;20.00;48.50;;;;;;5154608;27;20023;-78
2021/08/09 08:32:41;;;;;;;2.67;0.80;;;20.10;44.90;;;;;;5154416;27;20046;-81
2021/08/09 08:35:08;;;;;;;2.47;0.90;;;20.10;44.30;;;;;;5154267;27;20077;-80
2021/08/09 08:37:34;;;;;;;3.90;0.90;;;20.10;43.70;;;;;;5154151;27;20424;-80
2021/08/09 08:39:59;;;;;;;2.20;0.80;;;20.00;44.00;;;;;;5154116;27;20078;-79
2021/08/09 08:42:25;;;;;;;2.60;0.77;;;20.00;43.80;;;;;;5154258;27;20019;-79
2021/08/09 08:44:50;;;;;;;2.40;0.90;;;19.90;43.70;;;;;;5153976;27;20072;-79
2021/08/09 08:47:19;;;;;;;2.50;1.00;;;20.00;43.20;;;;;;5153974;27;20105;-79
2021/08/09 08:49:44;;;;;;;4.30;1.25;;;20.10;43.70;;;;;;5153899;27;20019;-76
2021/08/09 08:52:11;;;;;;;2.78;0.77;;;20.10;45.20;;;;;;5152794;27;20043;-79
2021/08/09 08:54:39;;;;;;;4.13;1.20;;;20.10;45.90;;;;;;5153353;27;20022;-79
2021/08/09 08:57:13;;;;;;;3.42;1.38;;;20.20;45.80;;;;;;5152519;27;20041;-79
2021/08/09 08:59:39;;;;;;;2.88;1.00;;;20.30;44.90;;;;;;5153497;27;20018;-79
2021/08/09 09:02:06;;;;;;;6.63;1.00;;;20.30;45.10;;;;;;5153224;27;20494;-79
2021/08/09 09:04:32;;;;;;;5.63;1.30;;;20.40;44.00;;;;;;5153929;27;20042;-79
2021/08/09 09:07:18;;;;;;;1.00;0.85;;;20.50;44.90;;;;;;5154033;27;20378;-79
2021/08/09 09:09:43;;;;;;;;;;;20.50;45.60;;;;;;5133914;27;20031;-79
2021/08/09 09:12:19;;;;;;;3.97;1.00;;;20.60;44.70;;;;;;5153777;27;19955;-79
2021/08/09 09:14:59;;;;;;;3.40;0.98;;;20.70;45.50;;;;;;5153905;27;20027;-79
2021/08/09 09:17:36;;;;;;;2.80;0.90;;;20.70;44.00;;;;;;5154675;27;20023;-80
2021/08/09 09:20:25;;;;;;;6.18;0.70;;;20.60;43.50;;;;;;5157415;27;20027;-79
2021/08/09 09:22:52;;;;;;;3.58;1.17;;;20.70;45.00;;;;;;5157738;27;20015;-79
2021/08/09 09:25:31;;;;;;;2.80;0.60;;;20.80;45.40;;;;;;5138919;27;20029;-79
2021/08/09 09:27:57;;;;;;;1.13;0.65;;;20.90;43.20;;;;;;5157326;27;20022;-79
2021/08/09 09:30:29;;;;;;;5.28;0.88;;;20.90;43.30;;;;;;5157408;27;20063;-80
2021/08/09 09:33:03;;;;;;;3.20;1.33;;;20.90;41.20;;;;;;5157300;27;20363;-80
2021/08/09 09:35:29;;;;;;;2.38;0.98;;;21.00;42.10;;;;;;5157051;27;20094;-79
2021/08/09 09:37:55;;;;;;;2.42;0.80;;;21.00;41.30;;;;;;5157198;27;20461;-79
2021/08/09 09:40:21;;;;;;;4.28;1.08;;;21.00;40.00;;;;;;5138459;27;20022;-79
2021/08/09 09:42:47;;;;;;;4.53;2.30;;;20.90;38.20;;;;;;5157131;27;20025;-78
2021/08/09 09:45:20;;;;;;;3.20;0.88;;;20.90;39.00;;;;;;5157236;27;20061;-81
2021/08/09 09:48:00;;;;;;;2.13;0.80;;;21.10;39.50;;;;;;5156981;27;20199;-75
2021/08/09 09:50:25;;;;;;;3.70;1.20;;;21.30;39.60;;;;;;5157184;27;20041;-72
2021/08/09 09:52:51;;;;;;;1.73;0.77;;;21.20;40.10;;;;;;5156820;27;20046;-74
2021/08/09 09:55:17;;;;;;;1.48;0.65;;;21.20;40.20;;;;;;5156877;27;20031;-73
2021/08/09 09:57:44;;;;;;;4.95;1.23;;;21.20;41.50;;;;;;5156476;27;20027;-72
2021/08/09 10:00:13;;;;;;;2.03;0.90;;;21.10;42.30;;;;;;5156296;27;20014;-72
2021/08/09 10:02:44;;;;;;;2.25;0.68;;;21.20;41.40;;;;;;5156219;27;20015;-72
2021/08/09 10:05:10;;;;;;;2.08;0.57;;;21.30;40.60;;;;;;5156132;27;20378;-72
2021/08/09 10:07:37;;;;;;;2.10;0.95;;;21.40;39.40;;;;;;5156037;27;20033;-72
2021/08/09 10:10:05;;;;;;;2.70;0.70;;;21.40;39.20;;;;;;5158228;27;20035;-73
2021/08/09 10:12:32;;;;;;;2.60;0.98;;;21.50;39.50;;;;;;5159832;27;20023;-73
2021/08/09 10:14:59;;;;;;;2.55;1.02;;;21.50;39.60;;;;;;5156301;27;20470;-73
2021/08/09 10:17:27;;;;;;;4.40;0.90;;;21.70;39.80;;;;;;5137546;27;20435;-73
2021/08/09 10:19:58;;;;;;;1.85;1.20;;;21.90;39.50;;;;;;5156296;27;20015;-72
2021/08/09 10:22:25;;;;;;;2.72;1.10;;;22.20;39.30;;;;;;5156238;27;20018;-73
2021/08/09 10:24:52;;;;;;;2.63;0.90;;;22.20;39.60;;;;;;5156293;27;20042;-72
2021/08/09 10:27:46;;;;;;;2.67;0.93;;;22.30;38.10;;;;;;5156058;27;20463;-72
2021/08/09 10:30:12;;;;;;;5.28;1.13;;;22.30;38.40;;;;;;5155414;27;20107;-73
2021/08/09 10:32:53;;;;;;;3.10;0.98;;;22.50;39.50;;;;;;5156148;27;20062;-73
2021/08/09 10:35:45;;;;;;;2.38;1.23;;;22.40;38.20;;;;;;5156098;27;20015;-73
2021/08/09 10:38:24;;;;;;;4.50;0.90;;;22.30;38.70;;;;;;5137437;27;20049;-73
2021/08/09 10:41:08;;;;;;;1.95;0.90;;;22.40;37.90;;;;;;5155895;27;20079;-73
2021/08/09 10:43:37;;;;;;;4.68;1.20;;;22.80;37.30;;;;;;5155980;27;20079;-73
2021/08/09 10:46:37;;;;;;;2.78;0.70;;;23.10;36.90;;;;;;5155914;27;20018;-73
2021/08/09 10:49:04;;;;;;;4.93;0.90;;;23.40;36.00;;;;;;5137211;27;20083;-73
2021/08/09 10:51:51;;;;;;;2.72;1.20;;;23.40;37.20;;;;;;5155655;27;20050;-75
2021/08/09 10:54:26;;;;;;;1.67;0.85;;;23.70;36.10;;;;;;5155746;27;20027;-73
2021/08/09 10:56:52;;;;;;;3.28;0.73;;;23.40;36.20;;;;;;5155778;27;20030;-73
2021/08/09 10:59:40;;;;;;;2.15;0.80;;;23.10;36.10;;;;;;5155622;27;20027;-73
2021/08/09 11:02:16;;;;;;;4.55;1.15;;;22.90;36.80;;;;;;5155714;27;20015;-73
2021/08/09 11:04:42;;;;;;;3.85;1.20;;;22.90;36.90;;;;;;5155794;27;20019;-74
2021/08/09 11:07:17;;;;;;;3.42;1.00;;;22.80;36.70;;;;;;5155421;27;20023;-74
2021/08/09 11:09:47;;;;;;;1.92;0.77;;;23.00;36.60;;;;;;5155551;27;20097;-76
2021/08/09 11:12:17;;;;;;;1.55;0.90;;;23.20;36.70;;;;;;5155478;27;20022;-75
2021/08/09 11:17:27;;;;;;;2.75;1.17;;;24.10;36.00;;;;;;5155232;27;20033;-75
2021/08/09 11:20:08;;;;;;;2.65;0.95;;;24.10;37.50;;;;;;5155134;27;20027;-74
2021/08/09 11:22:33;;;;;;;2.08;0.90;;;24.10;35.40;;;;;;5155189;27;20054;-74
2021/08/09 11:24:59;;;;;;;2.63;1.00;;;23.90;36.50;;;;;;5155144;27;20083;-74
2021/08/09 11:27:24;;;;;;;3.85;1.30;;;23.40;36.80;;;;;;5155222;27;20030;-76
2021/08/09 11:29:59;;;;;;;5.57;1.40;;;23.30;37.50;;;;;;5154945;27;20019;-74
2021/08/09 11:32:38;;;;;;;2.67;1.00;;;23.20;37.90;;;;;;5154792;27;20050;-76
2021/08/09 11:35:05;;;;;;;2.80;0.93;;;23.10;38.40;;;;;;5155026;27;20272;-75
2021/08/09 11:37:30;;;;;;;4.47;1.20;;;23.30;38.80;;;;;;5154971;27;20031;-75
2021/08/09 11:39:56;;;;;;;5.50;1.17;;;23.30;38.70;;;;;;5154883;27;20110;-75
2021/08/09 11:42:22;;;;;;;2.80;1.05;;;23.20;39.00;;;;;;5154040;27;20139;-75
2021/08/09 11:44:47;;;;;;;1.75;1.00;;;23.50;38.50;;;;;;5154848;27;20015;-75
2021/08/09 11:47:22;;;;;;;1.35;0.80;;;23.90;38.10;;;;;;5154858;27;20470;-75
2021/08/09 11:49:54;;;;;;;2.15;0.98;;;24.50;37.50;;;;;;5154714;27;20018;-74
2021/08/09 11:52:20;;;;;;;1.95;1.10;;;24.80;36.70;;;;;;5154769;27;20070;-76
2021/08/09 11:54:46;;;;;;;2.05;0.90;;;24.70;36.90;;;;;;5154644;27;20227;-75
2021/08/09 11:57:12;;;;;;;3.67;1.15;;;24.80;35.30;;;;;;5158648;27;20034;-75
2021/08/09 11:59:41;;;;;;;3.95;1.02;;;25.00;33.80;;;;;;5166366;27;20015;-74
2021/08/09 12:02:08;;;;;;;4.18;1.05;;;25.20;34.30;;;;;;5158942;27;20033;-74
2021/08/09 12:04:45;;;;;;;2.60;1.10;;;25.40;33.90;;;;;;5154699;27;20022;-74
2021/08/09 12:07:21;;;;;;;2.45;1.25;;;25.40;34.50;;;;;;5154401;27;20411;-75
2021/08/09 12:09:47;;;;;;;2.30;1.02;;;25.10;35.50;;;;;;5154635;27;20026;-74
2021/08/09 12:12:18;;;;;;;2.47;0.80;;;25.20;36.60;;;;;;5154424;27;20031;-74
2021/08/09 12:14:44;;;;;;;4.15;1.33;;;25.40;34.80;;;;;;5154574;27;20097;-72
2021/08/09 12:17:16;;;;;;;1.38;0.80;;;24.80;35.30;;;;;;5154366;27;20475;-72
2021/08/09 12:19:50;;;;;;;1.95;1.40;;;23.80;37.00;;;;;;5154523;27;20035;-72
2021/08/09 12:22:29;;;;;;;3.33;1.10;;;23.60;38.00;;;;;;5154495;27;20506;-72
2021/08/09 12:25:00;;;;;;;3.63;0.80;;;23.90;37.50;;;;;;5154260;27;20034;-74
2021/08/09 12:27:27;;;;;;;2.35;1.15;;;24.20;37.70;;;;;;5154622;27;20072;-73
2021/08/09 12:30:13;;;;;;;1.88;1.00;;;24.10;37.40;;;;;;5154316;27;20027;-75
2021/08/09 12:32:40;;;;;;;2.60;1.13;;;23.90;37.50;;;;;;5154104;27;20027;-73
2021/08/09 12:35:08;;;;;;;3.03;1.05;;;23.90;37.40;;;;;;5155688;27;20018;-77
2021/08/09 12:37:36;;;;;;;4.03;1.20;;;24.20;36.80;;;;;;5156233;27;20114;-74
2021/08/09 12:40:09;;;;;;;2.25;1.20;;;24.50;36.80;;;;;;5154205;27;20266;-74
2021/08/09 12:42:34;;;;;;;3.20;1.27;;;24.80;37.00;;;;;;5154249;27;20478;-74
2021/08/09 12:45:00;;;;;;;1.58;0.82;;;24.60;35.60;;;;;;5154060;27;20033;-74
2021/08/09 12:47:25;;;;;;;3.70;1.38;;;24.70;35.90;;;;;;5154241;27;20383;-73
2021/08/09 12:49:51;;;;;;;4.57;1.20;;;25.00;35.80;;;;;;5154094;27;20019;-73
2021/08/09 12:52:17;;;;;;;1.95;1.10;;;25.20;36.40;;;;;;5154663;27;20524;-80
2021/08/09 12:54:42;;;;;;;2.53;1.17;;;25.30;36.40;;;;;;5158227;27;20023;-82
2021/08/09 12:57:08;;;;;;;2.90;1.20;;;25.10;35.10;;;;;;5158291;27;20029;-81